sensor_id;sensor_type;location;lat;lon;timestamp;pressure;altitude;pressure_sealevel;temperature;humidity
46768;BME280;69007;48.978;18.066;2023-07-02T00:01:02;96691.41;;;19.45;100.00
46768;BME280;69007;48.978;18.066;2023-07-02T00:03:29;96696.00;;;19.41;100.00
46768;BME280;69007;48.978;18.066;2023-07-02T00:05:54;96672.59;;;19.22;100.00
46768;BME280;69007;48.978;18.066;2023-07-02T00:08:22;96681.88;;;19.30;100.00
46768;BME280;69007;48.978;18.066;2023-07-02T00:10:47;96690.03;;;19.39;100.00
46768;BME280;69007;48.978;18.066;2023-07-02T00:13:14;96705.09;;;19.41;100.00
46768;BME280;69007;48.978;18.066;2023-07-02T00:15:39;96704.53;;;19.36;100.00
46768;BME280;69007;48.978;18.066;2023-07-02T00:18:04;96700.59;;;19.37;100.00
46768;BME280;69007;48.978;18.066;2023-07-02T00:20:30;96696.47;;;19.30;100.00
46768;BME280;69007;48.978;18.066;2023-07-02T00:23:00;96693.13;;;19.25;100.00
46768;BME280;69007;48.978;18.066;2023-07-02T00:25:25;96701.06;;;19.26;100.00
46768;BME280;69007;48.978;18.066;2023-07-02T00:27:51;96716.00;;;19.25;100.00
46768;BME280;69007;48.978;18.066;2023-07-02T00:30:16;96709.69;;;19.25;100.00
46768;BME280;69007;48.978;18.066;2023-07-02T00:32:42;96713.22;;;19.25;100.00
46768;BME280;69007;48.978;18.066;2023-07-02T00:35:07;96717.50;;;19.23;100.00
46768;BME280;69007;48.978;18.066;2023-07-02T00:37:32;96696.69;;;19.13;100.00
46768;BME280;69007;48.978;18.066;2023-07-02T00:39:58;96706.25;;;19.15;100.00
46768;BME280;69007;48.978;18.066;2023-07-02T00:42:23;96690.47;;;19.04;100.00
46768;BME280;69007;48.978;18.066;2023-07-02T00:44:49;96715.53;;;19.11;100.00
46768;BME280;69007;48.978;18.066;2023-07-02T00:47:17;96698.63;;;19.00;100.00
46768;BME280;69007;48.978;18.066;2023-07-02T00:49:43;96697.25;;;18.94;100.00
46768;BME280;69007;48.978;18.066;2023-07-02T00:52:08;96697.13;;;18.90;100.00
46768;BME280;69007;48.978;18.066;2023-07-02T00:54:34;96709.53;;;18.84;100.00
46768;BME280;69007;48.978;18.066;2023-07-02T00:57:01;96712.13;;;18.81;100.00
46768;BME280;69007;48.978;18.066;2023-07-02T00:59:30;96704.75;;;18.72;100.00
46768;BME280;69007;48.978;18.066;2023-07-02T01:01:56;96717.31;;;18.82;100.00
46768;BME280;69007;48.978;18.066;2023-07-02T01:04:22;96702.50;;;18.74;100.00
46768;BME280;69007;48.978;18.066;2023-07-02T01:06:53;96718.28;;;18.86;100.00
46768;BME280;69007;48.978;18.066;2023-07-02T01:09:23;96706.78;;;18.84;100.00
46768;BME280;69007;48.978;18.066;2023-07-02T01:11:54;96701.78;;;18.77;100.00
46768;BME280;69007;48.978;18.066;2023-07-02T01:14:30;96695.69;;;18.72;100.00
46768;BME280;69007;48.978;18.066;2023-07-02T01:16:57;96692.72;;;18.65;100.00
46768;BME280;69007;48.978;18.066;2023-07-02T01:19:49;96715.00;;;18.72;100.00
46768;BME280;69007;48.978;18.066;2023-07-02T01:22:17;96717.41;;;18.73;100.00
46768;BME280;69007;48.978;18.066;2023-07-02T01:24:43;96698.56;;;18.63;100.00
46768;BME280;69007;48.978;18.066;2023-07-02T01:27:09;96699.47;;;18.67;100.00
46768;BME280;69007;48.978;18.066;2023-07-02T01:29:35;96720.50;;;18.72;100.00
46768;BME280;69007;48.978;18.066;2023-07-02T01:32:02;96713.25;;;18.67;100.00
46768;BME280;69007;48.978;18.066;2023-07-02T01:34:27;96706.59;;;18.68;100.00
46768;BME280;69007;48.978;18.066;2023-07-02T01:36:53;96699.56;;;18.58;100.00
46768;BME280;69007;48.978;18.066;2023-07-02T01:39:18;96691.66;;;18.57;100.00
46768;BME280;69007;48.978;18.066;2023-07-02T01:41:54;96710.38;;;18.64;100.00
46768;BME280;69007;48.978;18.066;2023-07-02T01:44:21;96708.56;;;18.68;100.00
46768;BME280;69007;48.978;18.066;2023-07-02T01:46:47;96685.47;;;18.60;100.00
46768;BME280;69007;48.978;18.066;2023-07-02T01:49:19;96691.75;;;18.60;100.00
46768;BME280;69007;48.978;18.066;2023-07-02T01:51:48;96712.13;;;18.68;100.00
46768;BME280;69007;48.978;18.066;2023-07-02T01:54:14;96712.91;;;18.69;100.00
46768;BME280;69007;48.978;18.066;2023-07-02T01:56:39;96697.50;;;18.55;100.00
46768;BME280;69007;48.978;18.066;2023-07-02T01:59:05;96693.34;;;18.49;100.00
46768;BME280;69007;48.978;18.066;2023-07-02T02:01:31;96690.81;;;18.44;100.00
46768;BME280;69007;48.978;18.066;2023-07-02T02:03:58;96694.00;;;18.34;100.00
46768;BME280;69007;48.978;18.066;2023-07-02T02:06:23;96708.84;;;18.41;100.00
46768;BME280;69007;48.978;18.066;2023-07-02T02:08:48;96706.41;;;18.40;100.00
46768;BME280;69007;48.978;18.066;2023-07-02T02:11:14;96709.84;;;18.37;100.00
46768;BME280;69007;48.978;18.066;2023-07-02T02:13:39;96703.53;;;18.36;100.00
46768;BME280;69007;48.978;18.066;2023-07-02T02:16:04;96676.94;;;18.19;100.00
46768;BME280;69007;48.978;18.066;2023-07-02T02:18:30;96711.19;;;18.31;100.00
46768;BME280;69007;48.978;18.066;2023-07-02T02:20:55;96697.75;;;18.29;100.00
46768;BME280;69007;48.978;18.066;2023-07-02T02:23:20;96700.59;;;18.20;100.00
46768;BME280;69007;48.978;18.066;2023-07-02T02:25:46;96713.22;;;18.21;100.00
46768;BME280;69007;48.978;18.066;2023-07-02T02:28:11;96712.75;;;18.19;100.00
46768;BME280;69007;48.978;18.066;2023-07-02T02:30:37;96694.84;;;18.13;100.00
46768;BME280;69007;48.978;18.066;2023-07-02T02:33:02;96719.66;;;18.26;100.00
46768;BME280;69007;48.978;18.066;2023-07-02T02:35:27;96718.03;;;18.24;100.00
46768;BME280;69007;48.978;18.066;2023-07-02T02:37:53;96707.03;;;18.24;100.00
46768;BME280;69007;48.978;18.066;2023-07-02T02:40:18;96696.44;;;18.14;100.00
46768;BME280;69007;48.978;18.066;2023-07-02T02:42:44;96708.41;;;18.18;100.00
46768;BME280;69007;48.978;18.066;2023-07-02T02:45:09;96698.59;;;18.09;100.00
46768;BME280;69007;48.978;18.066;2023-07-02T02:47:35;96707.13;;;18.16;100.00
46768;BME280;69007;48.978;18.066;2023-07-02T02:50:00;96707.56;;;18.18;100.00
46768;BME280;69007;48.978;18.066;2023-07-02T02:52:25;96688.47;;;18.00;100.00
46768;BME280;69007;48.978;18.066;2023-07-02T02:54:51;96693.22;;;18.12;100.00
46768;BME280;69007;48.978;18.066;2023-07-02T02:57:18;96694.09;;;18.25;100.00
46768;BME280;69007;48.978;18.066;2023-07-02T02:59:43;96715.16;;;18.21;100.00
46768;BME280;69007;48.978;18.066;2023-07-02T03:02:09;96690.47;;;18.12;100.00
46768;BME280;69007;48.978;18.066;2023-07-02T03:04:34;96699.66;;;18.16;100.00
46768;BME280;69007;48.978;18.066;2023-07-02T03:07:00;96710.47;;;18.21;100.00
46768;BME280;69007;48.978;18.066;2023-07-02T03:09:25;96717.56;;;18.22;100.00
46768;BME280;69007;48.978;18.066;2023-07-02T03:11:51;96710.47;;;18.21;100.00
46768;BME280;69007;48.978;18.066;2023-07-02T03:14:16;96719.00;;;18.29;100.00
46768;BME280;69007;48.978;18.066;2023-07-02T03:16:42;96706.31;;;18.15;100.00
46768;BME280;69007;48.978;18.066;2023-07-02T03:19:08;96720.34;;;18.22;100.00
46768;BME280;69007;48.978;18.066;2023-07-02T03:21:33;96737.13;;;18.30;100.00
46768;BME280;69007;48.978;18.066;2023-07-02T03:23:58;96729.91;;;18.37;100.00
46768;BME280;69007;48.978;18.066;2023-07-02T03:26:24;96727.59;;;18.60;100.00
46768;BME280;69007;48.978;18.066;2023-07-02T03:28:50;96712.47;;;18.79;100.00
46768;BME280;69007;48.978;18.066;2023-07-02T03:31:15;96718.75;;;19.13;100.00
46768;BME280;69007;48.978;18.066;2023-07-02T03:33:40;96726.13;;;19.46;100.00
46768;BME280;69007;48.978;18.066;2023-07-02T03:36:06;96720.91;;;19.69;100.00
46768;BME280;69007;48.978;18.066;2023-07-02T03:38:32;96729.78;;;19.87;100.00
46768;BME280;69007;48.978;18.066;2023-07-02T03:40:57;96733.84;;;20.18;100.00
46768;BME280;69007;48.978;18.066;2023-07-02T03:43:22;96718.59;;;20.36;100.00
46768;BME280;69007;48.978;18.066;2023-07-02T03:45:51;96727.06;;;20.72;100.00
46768;BME280;69007;48.978;18.066;2023-07-02T03:48:16;96718.53;;;20.93;100.00
46768;BME280;69007;48.978;18.066;2023-07-02T03:50:41;96716.41;;;21.02;100.00
46768;BME280;69007;48.978;18.066;2023-07-02T03:53:07;96729.34;;;21.14;100.00
46768;BME280;69007;48.978;18.066;2023-07-02T03:55:32;96716.75;;;21.16;100.00
46768;BME280;69007;48.978;18.066;2023-07-02T03:57:58;96731.06;;;21.50;100.00
46768;BME280;69007;48.978;18.066;2023-07-02T04:00:23;96733.53;;;21.71;100.00
46768;BME280;69007;48.978;18.066;2023-07-02T04:02:48;96718.91;;;21.90;100.00
46768;BME280;69007;48.978;18.066;2023-07-02T04:05:14;96732.47;;;21.96;100.00
46768;BME280;69007;48.978;18.066;2023-07-02T04:07:39;96712.44;;;21.83;100.00
46768;BME280;69007;48.978;18.066;2023-07-02T04:10:05;96706.66;;;21.92;100.00
46768;BME280;69007;48.978;18.066;2023-07-02T04:12:30;96714.78;;;22.20;100.00
46768;BME280;69007;48.978;18.066;2023-07-02T04:14:56;96732.38;;;22.47;100.00
46768;BME280;69007;48.978;18.066;2023-07-02T04:17:21;96726.72;;;22.24;100.00
46768;BME280;69007;48.978;18.066;2023-07-02T04:19:46;96735.59;;;22.30;100.00
46768;BME280;69007;48.978;18.066;2023-07-02T04:22:12;96737.84;;;22.43;100.00
46768;BME280;69007;48.978;18.066;2023-07-02T04:24:37;96737.66;;;22.52;100.00
46768;BME280;69007;48.978;18.066;2023-07-02T04:27:03;96742.91;;;22.57;100.00
46768;BME280;69007;48.978;18.066;2023-07-02T04:29:28;96741.94;;;22.69;100.00
46768;BME280;69007;48.978;18.066;2023-07-02T04:31:53;96749.28;;;22.81;100.00
46768;BME280;69007;48.978;18.066;2023-07-02T04:34:19;96739.13;;;22.89;100.00
46768;BME280;69007;48.978;18.066;2023-07-02T04:36:47;96741.84;;;22.85;100.00
46768;BME280;69007;48.978;18.066;2023-07-02T04:39:12;96749.13;;;22.15;100.00
46768;BME280;69007;48.978;18.066;2023-07-02T04:41:37;96741.22;;;22.33;100.00
46768;BME280;69007;48.978;18.066;2023-07-02T04:44:03;96740.09;;;22.77;100.00
46768;BME280;69007;48.978;18.066;2023-07-02T04:46:28;96751.00;;;23.55;100.00
46768;BME280;69007;48.978;18.066;2023-07-02T04:48:54;96750.16;;;24.04;98.91
46768;BME280;69007;48.978;18.066;2023-07-02T04:51:20;96764.09;;;24.65;95.71
46768;BME280;69007;48.978;18.066;2023-07-02T04:53:46;96758.72;;;25.24;89.61
46768;BME280;69007;48.978;18.066;2023-07-02T04:56:11;96746.59;;;25.43;87.17
46768;BME280;69007;48.978;18.066;2023-07-02T04:58:37;96748.88;;;25.82;85.32
46768;BME280;69007;48.978;18.066;2023-07-02T05:01:02;96754.50;;;25.93;83.73
46768;BME280;69007;48.978;18.066;2023-07-02T05:03:28;96756.19;;;25.98;85.31
46768;BME280;69007;48.978;18.066;2023-07-02T05:05:53;96745.47;;;26.91;79.77
46768;BME280;69007;48.978;18.066;2023-07-02T05:08:18;96758.28;;;28.18;75.17
46768;BME280;69007;48.978;18.066;2023-07-02T05:10:44;96752.81;;;29.55;68.25
46768;BME280;69007;48.978;18.066;2023-07-02T05:13:09;96749.50;;;30.82;63.72
46768;BME280;69007;48.978;18.066;2023-07-02T05:15:35;96753.38;;;31.77;60.00
46768;BME280;69007;48.978;18.066;2023-07-02T05:18:00;96752.09;;;32.69;57.46
46768;BME280;69007;48.978;18.066;2023-07-02T05:20:25;96759.47;;;33.19;54.98
46768;BME280;69007;48.978;18.066;2023-07-02T05:22:51;96758.75;;;33.15;54.51
46768;BME280;69007;48.978;18.066;2023-07-02T05:25:16;96763.56;;;32.78;55.06
46768;BME280;69007;48.978;18.066;2023-07-02T05:27:42;96761.22;;;33.13;53.95
46768;BME280;69007;48.978;18.066;2023-07-02T05:30:07;96766.22;;;33.91;51.69
46768;BME280;69007;48.978;18.066;2023-07-02T05:32:34;96771.22;;;35.17;48.69
46768;BME280;69007;48.978;18.066;2023-07-02T05:34:59;96778.81;;;35.59;46.68
46768;BME280;69007;48.978;18.066;2023-07-02T05:37:25;96774.56;;;36.15;45.44
46768;BME280;69007;48.978;18.066;2023-07-02T05:39:50;96771.72;;;34.74;48.35
46768;BME280;69007;48.978;18.066;2023-07-02T05:42:16;96771.41;;;33.07;51.77
46768;BME280;69007;48.978;18.066;2023-07-02T05:44:41;96769.56;;;34.03;49.66
46768;BME280;69007;48.978;18.066;2023-07-02T05:47:06;96776.66;;;34.69;47.46
46768;BME280;69007;48.978;18.066;2023-07-02T05:49:32;96779.16;;;35.87;44.82
46768;BME280;69007;48.978;18.066;2023-07-02T05:51:57;96770.31;;;36.45;40.97
46768;BME280;69007;48.978;18.066;2023-07-02T05:54:23;96776.28;;;33.92;47.51
46768;BME280;69007;48.978;18.066;2023-07-02T05:56:48;96785.97;;;31.47;53.65
46768;BME280;69007;48.978;18.066;2023-07-02T05:59:13;96787.38;;;30.32;57.85
46768;BME280;69007;48.978;18.066;2023-07-02T06:01:43;96777.94;;;30.15;59.39
46768;BME280;69007;48.978;18.066;2023-07-02T06:04:08;96780.44;;;32.38;52.71
46768;BME280;69007;48.978;18.066;2023-07-02T06:06:33;96779.97;;;35.36;45.32
46768;BME280;69007;48.978;18.066;2023-07-02T06:08:59;96798.22;;;36.21;43.59
46768;BME280;69007;48.978;18.066;2023-07-02T06:11:24;96794.78;;;34.10;48.06
46768;BME280;69007;48.978;18.066;2023-07-02T06:13:50;96790.88;;;31.39;54.01
46768;BME280;69007;48.978;18.066;2023-07-02T06:16:15;96782.94;;;29.44;61.10
46768;BME280;69007;48.978;18.066;2023-07-02T06:18:40;96796.66;;;27.85;67.94
46768;BME280;69007;48.978;18.066;2023-07-02T06:21:06;96799.66;;;26.83;73.92
46768;BME280;69007;48.978;18.066;2023-07-02T06:23:43;96801.28;;;26.14;78.42
46768;BME280;69007;48.978;18.066;2023-07-02T06:26:09;96790.09;;;25.59;80.91
46768;BME280;69007;48.978;18.066;2023-07-02T06:28:35;96788.22;;;25.29;82.14
46768;BME280;69007;48.978;18.066;2023-07-02T06:31:00;96802.56;;;24.93;85.24
46768;BME280;69007;48.978;18.066;2023-07-02T06:33:26;96817.53;;;24.55;87.30
46768;BME280;69007;48.978;18.066;2023-07-02T06:35:51;96803.59;;;24.21;90.30
46768;BME280;69007;48.978;18.066;2023-07-02T06:38:16;96786.69;;;23.80;92.18
46768;BME280;69007;48.978;18.066;2023-07-02T06:40:42;96789.88;;;23.55;94.47
46768;BME280;69007;48.978;18.066;2023-07-02T06:43:07;96806.84;;;23.50;96.10
46768;BME280;69007;48.978;18.066;2023-07-02T06:45:32;96790.81;;;23.40;99.24
46768;BME280;69007;48.978;18.066;2023-07-02T06:47:58;96808.00;;;23.49;99.04
46768;BME280;69007;48.978;18.066;2023-07-02T06:50:23;96803.81;;;23.35;99.71
46768;BME280;69007;48.978;18.066;2023-07-02T06:52:49;96797.69;;;23.26;98.70
46768;BME280;69007;48.978;18.066;2023-07-02T06:55:14;96819.34;;;23.17;99.29
46768;BME280;69007;48.978;18.066;2023-07-02T06:57:43;96804.22;;;23.14;100.00
46768;BME280;69007;48.978;18.066;2023-07-02T07:00:13;96822.59;;;23.23;99.68
46768;BME280;69007;48.978;18.066;2023-07-02T07:02:38;96803.63;;;23.05;98.79
46768;BME280;69007;48.978;18.066;2023-07-02T07:05:04;96799.91;;;22.97;95.30
46768;BME280;69007;48.978;18.066;2023-07-02T07:07:29;96822.41;;;23.12;94.62
46768;BME280;69007;48.978;18.066;2023-07-02T07:09:55;96806.13;;;23.10;91.33
46768;BME280;69007;48.978;18.066;2023-07-02T07:12:20;96831.91;;;23.11;90.73
46768;BME280;69007;48.978;18.066;2023-07-02T07:14:46;96815.69;;;23.13;92.00
46768;BME280;69007;48.978;18.066;2023-07-02T07:17:11;96820.19;;;23.21;91.88
46768;BME280;69007;48.978;18.066;2023-07-02T07:19:36;96823.13;;;23.28;90.03
46768;BME280;69007;48.978;18.066;2023-07-02T07:22:02;96807.88;;;23.42;87.31
46768;BME280;69007;48.978;18.066;2023-07-02T07:24:27;96829.94;;;23.81;85.06
46768;BME280;69007;48.978;18.066;2023-07-02T07:26:53;96836.41;;;24.12;85.61
46768;BME280;69007;48.978;18.066;2023-07-02T07:29:18;96833.69;;;24.42;82.00
46768;BME280;69007;48.978;18.066;2023-07-02T07:31:43;96839.97;;;24.65;81.49
46768;BME280;69007;48.978;18.066;2023-07-02T07:34:09;96844.94;;;24.83;79.19
46768;BME280;69007;48.978;18.066;2023-07-02T07:36:34;96850.91;;;24.81;79.05
46768;BME280;69007;48.978;18.066;2023-07-02T07:39:00;96841.34;;;24.79;78.87
46768;BME280;69007;48.978;18.066;2023-07-02T07:41:26;96850.44;;;24.76;78.67
46768;BME280;69007;48.978;18.066;2023-07-02T07:43:51;96840.88;;;24.73;78.40
46768;BME280;69007;48.978;18.066;2023-07-02T07:46:16;96847.34;;;24.84;78.78
46768;BME280;69007;48.978;18.066;2023-07-02T07:48:42;96850.47;;;24.79;79.00
46768;BME280;69007;48.978;18.066;2023-07-02T07:51:07;96854.06;;;24.53;82.37
46768;BME280;69007;48.978;18.066;2023-07-02T07:53:32;96850.28;;;24.38;82.89
46768;BME280;69007;48.978;18.066;2023-07-02T07:55:58;96853.63;;;24.21;81.39
46768;BME280;69007;48.978;18.066;2023-07-02T07:58:23;96847.69;;;24.22;82.48
46768;BME280;69007;48.978;18.066;2023-07-02T08:00:49;96855.03;;;24.07;80.74
46768;BME280;69007;48.978;18.066;2023-07-02T08:03:14;96837.38;;;23.96;80.42
46768;BME280;69007;48.978;18.066;2023-07-02T08:05:40;96827.00;;;23.93;80.94
46768;BME280;69007;48.978;18.066;2023-07-02T08:08:05;96827.38;;;24.18;77.72
46768;BME280;69007;48.978;18.066;2023-07-02T08:10:30;96821.41;;;24.46;76.92
46768;BME280;69007;48.978;18.066;2023-07-02T08:12:56;96841.13;;;24.95;75.62
46768;BME280;69007;48.978;18.066;2023-07-02T08:15:21;96845.13;;;25.72;75.31
46768;BME280;69007;48.978;18.066;2023-07-02T08:17:47;96837.81;;;26.02;71.77
46768;BME280;69007;48.978;18.066;2023-07-02T08:20:12;96840.88;;;25.86;69.34
46768;BME280;69007;48.978;18.066;2023-07-02T08:22:39;96846.84;;;25.88;70.69
46768;BME280;69007;48.978;18.066;2023-07-02T08:25:05;96832.34;;;25.68;71.80
46768;BME280;69007;48.978;18.066;2023-07-02T08:27:30;96855.75;;;25.60;73.35
46768;BME280;69007;48.978;18.066;2023-07-02T08:29:56;96849.72;;;25.54;73.94
46768;BME280;69007;48.978;18.066;2023-07-02T08:32:21;96858.63;;;25.70;72.75
46768;BME280;69007;48.978;18.066;2023-07-02T08:34:46;96860.41;;;25.89;72.70
46768;BME280;69007;48.978;18.066;2023-07-02T08:37:12;96868.56;;;26.09;71.91
46768;BME280;69007;48.978;18.066;2023-07-02T08:39:37;96863.53;;;26.33;71.97
46768;BME280;69007;48.978;18.066;2023-07-02T08:42:05;96870.72;;;26.34;70.35
46768;BME280;69007;48.978;18.066;2023-07-02T08:44:30;96853.53;;;26.24;69.88
46768;BME280;69007;48.978;18.066;2023-07-02T08:46:56;96880.00;;;26.52;69.10
46768;BME280;69007;48.978;18.066;2023-07-02T08:49:22;96870.06;;;26.55;69.25
46768;BME280;69007;48.978;18.066;2023-07-02T08:51:48;96877.59;;;26.47;68.29
46768;BME280;69007;48.978;18.066;2023-07-02T08:54:14;96857.19;;;26.39;70.00
46768;BME280;69007;48.978;18.066;2023-07-02T08:56:40;96878.47;;;26.62;70.05
46768;BME280;69007;48.978;18.066;2023-07-02T08:59:09;96870.34;;;26.39;69.57
46768;BME280;69007;48.978;18.066;2023-07-02T09:01:51;96871.38;;;26.13;71.60
46768;BME280;69007;48.978;18.066;2023-07-02T09:04:23;96890.16;;;26.23;71.65
46768;BME280;69007;48.978;18.066;2023-07-02T09:07:03;96874.31;;;26.34;70.48
46768;BME280;69007;48.978;18.066;2023-07-02T09:09:29;96876.19;;;26.16;70.20
46768;BME280;69007;48.978;18.066;2023-07-02T09:11:55;96872.94;;;26.10;70.98
46768;BME280;69007;48.978;18.066;2023-07-02T09:14:31;96871.78;;;26.15;71.89
46768;BME280;69007;48.978;18.066;2023-07-02T09:17:04;96874.34;;;25.89;72.46
46768;BME280;69007;48.978;18.066;2023-07-02T09:19:30;96883.31;;;25.72;75.81
46768;BME280;69007;48.978;18.066;2023-07-02T09:21:57;96886.81;;;26.03;72.92
46768;BME280;69007;48.978;18.066;2023-07-02T09:24:25;96865.53;;;26.32;73.05
46768;BME280;69007;48.978;18.066;2023-07-02T09:26:52;96869.78;;;26.74;75.15
46768;BME280;69007;48.978;18.066;2023-07-02T09:31:51;96861.97;;;26.35;71.00
46768;BME280;69007;48.978;18.066;2023-07-02T09:34:16;96873.19;;;25.94;72.28
46768;BME280;69007;48.978;18.066;2023-07-02T09:36:42;96853.25;;;25.47;74.12
46768;BME280;69007;48.978;18.066;2023-07-02T09:39:19;96856.69;;;24.99;74.73
46768;BME280;69007;48.978;18.066;2023-07-02T09:41:50;96849.53;;;24.68;79.99
46768;BME280;69007;48.978;18.066;2023-07-02T09:44:17;96856.16;;;24.87;78.28
46768;BME280;69007;48.978;18.066;2023-07-02T09:46:53;96849.16;;;25.00;82.46
46768;BME280;69007;48.978;18.066;2023-07-02T09:49:21;96868.63;;;25.34;79.13
46768;BME280;69007;48.978;18.066;2023-07-02T09:51:47;96842.00;;;25.36;75.90
46768;BME280;69007;48.978;18.066;2023-07-02T09:54:13;96841.66;;;25.42;76.48
46768;BME280;69007;48.978;18.066;2023-07-02T09:56:39;96871.00;;;25.73;75.29
46768;BME280;69007;48.978;18.066;2023-07-02T09:59:05;96852.94;;;25.97;72.80
46768;BME280;69007;48.978;18.066;2023-07-02T10:01:30;96860.47;;;25.97;74.25
46768;BME280;69007;48.978;18.066;2023-07-02T10:03:56;96845.25;;;25.87;73.47
46768;BME280;69007;48.978;18.066;2023-07-02T10:06:21;96869.31;;;26.06;71.74
46768;BME280;69007;48.978;18.066;2023-07-02T10:08:56;96844.75;;;25.74;72.97
46768;BME280;69007;48.978;18.066;2023-07-02T10:11:32;96864.22;;;25.70;73.62
46768;BME280;69007;48.978;18.066;2023-07-02T10:13:59;96874.88;;;25.61;73.84
46768;BME280;69007;48.978;18.066;2023-07-02T10:16:24;96868.09;;;25.59;73.47
46768;BME280;69007;48.978;18.066;2023-07-02T10:18:52;96863.44;;;25.73;74.52
46768;BME280;69007;48.978;18.066;2023-07-02T10:21:18;96871.56;;;25.93;74.30
46768;BME280;69007;48.978;18.066;2023-07-02T10:23:43;96872.59;;;26.15;75.37
46768;BME280;69007;48.978;18.066;2023-07-02T10:26:19;96855.56;;;26.31;76.79
46768;BME280;69007;48.978;18.066;2023-07-02T10:29:02;96846.00;;;26.32;67.42
46768;BME280;69007;48.978;18.066;2023-07-02T10:31:28;96838.69;;;26.09;68.01
46768;BME280;69007;48.978;18.066;2023-07-02T10:33:54;96860.19;;;26.05;71.33
46768;BME280;69007;48.978;18.066;2023-07-02T10:36:21;96852.47;;;25.95;72.07
46768;BME280;69007;48.978;18.066;2023-07-02T10:38:48;96864.94;;;26.05;72.61
46768;BME280;69007;48.978;18.066;2023-07-02T10:41:23;96841.84;;;26.08;74.82
46768;BME280;69007;48.978;18.066;2023-07-02T10:43:49;96852.88;;;26.49;72.76
46768;BME280;69007;48.978;18.066;2023-07-02T10:46:21;96851.72;;;26.57;69.88
46768;BME280;69007;48.978;18.066;2023-07-02T10:48:54;96864.19;;;26.74;71.04
46768;BME280;69007;48.978;18.066;2023-07-02T10:51:22;96855.50;;;26.83;70.91
46768;BME280;69007;48.978;18.066;2023-07-02T10:54:02;96860.31;;;26.90;71.83
46768;BME280;69007;48.978;18.066;2023-07-02T10:56:30;96842.78;;;26.93;68.35
46768;BME280;69007;48.978;18.066;2023-07-02T10:58:56;96843.13;;;26.84;69.49
46768;BME280;69007;48.978;18.066;2023-07-02T11:01:27;96843.16;;;26.91;70.31
46768;BME280;69007;48.978;18.066;2023-07-02T11:03:57;96840.75;;;26.86;65.75
46768;BME280;69007;48.978;18.066;2023-07-02T11:06:24;96835.09;;;26.68;70.66
46768;BME280;69007;48.978;18.066;2023-07-02T11:08:50;96847.50;;;26.81;68.64
46768;BME280;69007;48.978;18.066;2023-07-02T11:11:16;96832.72;;;26.74;66.99
46768;BME280;69007;48.978;18.066;2023-07-02T11:13:45;96834.50;;;26.44;70.78
46768;BME280;69007;48.978;18.066;2023-07-02T11:16:27;96822.22;;;26.56;68.63
46768;BME280;69007;48.978;18.066;2023-07-02T11:19:06;96826.97;;;26.45;66.36
46768;BME280;69007;48.978;18.066;2023-07-02T11:21:35;96828.03;;;26.22;70.56
46768;BME280;69007;48.978;18.066;2023-07-02T11:24:07;96837.94;;;26.20;66.50
46768;BME280;69007;48.978;18.066;2023-07-02T11:26:40;96843.84;;;26.07;70.33
46768;BME280;69007;48.978;18.066;2023-07-02T11:29:12;96852.22;;;26.07;68.36
46768;BME280;69007;48.978;18.066;2023-07-02T11:31:42;96844.81;;;26.33;68.52
46768;BME280;69007;48.978;18.066;2023-07-02T11:34:21;96830.16;;;26.47;68.51
46768;BME280;69007;48.978;18.066;2023-07-02T11:36:47;96831.44;;;26.60;68.95
46768;BME280;69007;48.978;18.066;2023-07-02T11:39:13;96837.91;;;26.79;65.18
46768;BME280;69007;48.978;18.066;2023-07-02T11:41:42;96832.78;;;26.92;65.47
46768;BME280;69007;48.978;18.066;2023-07-02T11:44:08;96826.03;;;27.03;65.80
46768;BME280;69007;48.978;18.066;2023-07-02T11:46:33;96832.41;;;26.93;66.62
46768;BME280;69007;48.978;18.066;2023-07-02T11:49:04;96835.13;;;26.82;61.85
46768;BME280;69007;48.978;18.066;2023-07-02T11:51:33;96826.50;;;26.36;64.80
46768;BME280;69007;48.978;18.066;2023-07-02T11:53:58;96844.25;;;26.06;67.23
46768;BME280;69007;48.978;18.066;2023-07-02T11:56:23;96852.22;;;25.63;70.79
46768;BME280;69007;48.978;18.066;2023-07-02T11:58:49;96840.97;;;25.52;71.69
46768;BME280;69007;48.978;18.066;2023-07-02T12:01:14;96842.00;;;25.36;71.71
46768;BME280;69007;48.978;18.066;2023-07-02T12:03:40;96828.75;;;25.26;72.28
46768;BME280;69007;48.978;18.066;2023-07-02T12:06:05;96836.81;;;25.35;71.09
46768;BME280;69007;48.978;18.066;2023-07-02T12:08:30;96841.50;;;25.27;74.01
46768;BME280;69007;48.978;18.066;2023-07-02T12:10:56;96825.28;;;25.33;73.91
46768;BME280;69007;48.978;18.066;2023-07-02T12:13:21;96814.53;;;25.31;73.53
46768;BME280;69007;48.978;18.066;2023-07-02T12:15:47;96840.34;;;25.69;71.48
46768;BME280;69007;48.978;18.066;2023-07-02T12:18:13;96824.53;;;25.84;72.21
46768;BME280;69007;48.978;18.066;2023-07-02T12:20:41;96830.25;;;25.99;69.23
46768;BME280;69007;48.978;18.066;2023-07-02T12:23:07;96820.84;;;26.21;67.79
46768;BME280;69007;48.978;18.066;2023-07-02T12:25:32;96829.69;;;26.38;68.88
46768;BME280;69007;48.978;18.066;2023-07-02T12:27:58;96819.47;;;26.60;66.96
46768;BME280;69007;48.978;18.066;2023-07-02T12:30:23;96812.34;;;26.66;66.38
46768;BME280;69007;48.978;18.066;2023-07-02T12:32:48;96793.91;;;26.47;66.49
46768;BME280;69007;48.978;18.066;2023-07-02T12:35:14;96807.47;;;26.52;67.97
46768;BME280;69007;48.978;18.066;2023-07-02T12:37:47;96832.19;;;26.57;64.35
46768;BME280;69007;48.978;18.066;2023-07-02T12:40:14;96808.94;;;26.28;65.73
46768;BME280;69007;48.978;18.066;2023-07-02T12:42:43;96798.09;;;26.12;66.31
46768;BME280;69007;48.978;18.066;2023-07-02T12:45:10;96806.88;;;26.18;68.07